Time;durP1;ratioP1;P1;durP2;ratioP2;P2;SDS_P1;SDS_P2;PMS_P1;PMS_P2;Temp;Humidity;BMP_temperature;BMP_pressure;BME280_temperature;BME280_humidity;BME280_pressure;Samples;Min_cycle;Max_cycle;Signal;HPM_P1;HPM_P2
2021/06/17 00:01:36;;;;;;;7.10;3.03;;;22.40;57.90;;;;;;5073601;28;20053;-72
2021/06/17 00:04:20;;;;;;;5.90;3.30;;;22.30;58.60;;;;;;5073474;28;20117;-70
2021/06/17 00:07:05;;;;;;;8.52;3.38;;;22.30;58.80;;;;;;5073967;28;20094;-71
2021/06/17 00:09:49;;;;;;;10.18;3.58;;;22.30;59.20;;;;;;5073810;28;20023;-72
2021/06/17 00:12:33;;;;;;;8.57;3.53;;;22.30;59.50;;;;;;5073625;28;20106;-72
2021/06/17 00:15:19;;;;;;;5.20;3.65;;;22.30;59.70;;;;;;5060542;28;20040;-72
2021/06/17 00:18:05;;;;;;;4.40;2.97;;;22.20;60.00;;;;;;5073809;28;20086;-72
2021/06/17 00:20:49;;;;;;;6.03;3.20;;;22.20;60.20;;;;;;5072754;28;20046;-72
2021/06/17 00:23:34;;;;;;;5.60;3.60;;;22.20;60.30;;;;;;5073567;28;20621;-72
2021/06/17 00:26:18;;;;;;;7.18;3.80;;;22.20;60.50;;;;;;5072989;28;20110;-71
2021/06/17 00:29:02;;;;;;;8.27;3.50;;;22.20;60.70;;;;;;5073433;28;20031;-72
2021/06/17 00:31:47;;;;;;;5.10;3.63;;;22.20;60.90;;;;;;5073387;28;20294;-72
2021/06/17 00:34:31;;;;;;;4.90;4.07;;;22.10;61.10;;;;;;5072979;28;20040;-72
2021/06/17 00:37:15;;;;;;;5.43;3.92;;;22.10;61.30;;;;;;5073088;28;20078;-71
2021/06/17 00:40:00;;;;;;;6.90;3.63;;;22.10;61.60;;;;;;5073076;28;20043;-71
2021/06/17 00:42:47;;;;;;;7.70;4.00;;;22.10;61.80;;;;;;5072914;28;20028;-71
2021/06/17 00:45:38;;;;;;;7.35;4.45;;;22.00;62.10;;;;;;5072744;28;20271;-71
2021/06/17 00:48:22;;;;;;;8.32;3.75;;;22.00;62.50;;;;;;5072918;28;20094;-71
2021/06/17 00:51:06;;;;;;;15.40;4.90;;;22.00;62.70;;;;;;5072689;28;20050;-71
2021/06/17 00:53:50;;;;;;;6.30;4.50;;;21.90;62.90;;;;;;5072448;28;20082;-72
2021/06/17 00:56:35;;;;;;;7.13;4.43;;;21.90;63.20;;;;;;5072767;28;20031;-71
2021/06/17 00:59:19;;;;;;;8.30;4.45;;;21.90;63.40;;;;;;5072725;28;20316;-71
2021/06/17 01:02:03;;;;;;;7.95;4.90;;;21.90;63.60;;;;;;5072678;28;20035;-70
2021/06/17 01:04:48;;;;;;;6.57;4.65;;;21.90;63.90;;;;;;5069813;28;20055;-70
2021/06/17 01:07:44;;;;;;;7.82;4.40;;;21.80;64.20;;;;;;5064316;28;20066;-70
2021/06/17 01:10:53;;;;;;;9.30;4.38;;;21.80;64.60;;;;;;5072143;28;20054;-70
2021/06/17 01:14:08;;;;;;;8.32;4.25;;;21.80;65.00;;;;;;5072276;28;20140;-70
2021/06/17 01:17:07;;;;;;;7.57;4.28;;;21.70;65.20;;;;;;5072286;28;20035;-70
2021/06/17 01:20:03;;;;;;;8.43;4.88;;;21.70;65.50;;;;;;5072127;28;20034;-70
2021/06/17 01:22:52;;;;;;;7.32;4.78;;;21.60;65.80;;;;;;5052280;28;20504;-70
2021/06/17 01:26:00;;;;;;;10.15;4.80;;;21.60;66.20;;;;;;5072039;28;20408;-70
2021/06/17 01:28:49;;;;;;;5.85;4.57;;;21.60;66.60;;;;;;5072294;28;20047;-70
2021/06/17 01:31:35;;;;;;;7.50;5.45;;;21.60;66.90;;;;;;5071723;28;20043;-70
2021/06/17 01:34:21;;;;;;;9.00;5.40;;;21.60;67.30;;;;;;5072020;28;20454;-70
2021/06/17 01:37:09;;;;;;;8.65;5.07;;;21.60;67.70;;;;;;5072222;28;20554;-70
2021/06/17 01:39:56;;;;;;;8.32;5.47;;;21.50;68.00;;;;;;5071947;28;20035;-70
2021/06/17 01:42:43;;;;;;;9.10;5.32;;;21.50;68.40;;;;;;5069075;28;20389;-70
2021/06/17 01:45:28;;;;;;;8.90;5.05;;;21.50;68.70;;;;;;5071858;28;20039;-70
2021/06/17 01:48:14;;;;;;;8.57;5.63;;;21.50;68.90;;;;;;5072004;28;20047;-70
2021/06/17 01:50:58;;;;;;;7.35;5.57;;;21.40;69.40;;;;;;5056531;28;20051;-70
2021/06/17 01:53:42;;;;;;;8.95;5.63;;;21.40;69.50;;;;;;5051612;28;20085;-72
2021/06/17 01:56:26;;;;;;;9.98;5.95;;;21.40;69.60;;;;;;5051658;28;20044;-69
2021/06/17 01:59:11;;;;;;;14.02;5.63;;;21.40;69.90;;;;;;5069077;28;20086;-69
2021/06/17 02:02:00;;;;;;;7.32;5.85;;;21.40;70.20;;;;;;5071859;28;20043;-71
2021/06/17 02:04:48;;;;;;;9.52;6.00;;;21.40;70.70;;;;;;5071212;28;20153;-71
2021/06/17 02:07:34;;;;;;;9.25;6.63;;;21.40;71.10;;;;;;5071377;28;20101;-71
2021/06/17 02:10:20;;;;;;;12.23;6.47;;;21.30;71.60;;;;;;5071275;28;20035;-71
2021/06/17 02:13:06;;;;;;;8.02;5.97;;;21.30;71.70;;;;;;5071449;28;20590;-70
2021/06/17 02:15:51;;;;;;;9.38;6.10;;;21.30;72.10;;;;;;5071331;28;20039;-71
2021/06/17 02:18:36;;;;;;;9.50;5.68;;;21.30;72.40;;;;;;5071516;28;20055;-80
2021/06/17 02:21:21;;;;;;;8.68;6.10;;;21.30;72.50;;;;;;5062981;28;20027;-79
2021/06/17 02:24:08;;;;;;;9.60;6.72;;;21.20;72.60;;;;;;5051702;28;20122;-78
2021/06/17 02:26:56;;;;;;;10.75;6.65;;;21.20;73.00;;;;;;5051566;28;20515;-79
2021/06/17 02:29:48;;;;;;;11.18;6.47;;;21.20;73.20;;;;;;5051537;28;20028;-80
2021/06/17 02:32:38;;;;;;;10.32;6.40;;;21.20;73.50;;;;;;5063465;28;20093;-78
2021/06/17 02:35:26;;;;;;;14.50;7.65;;;21.20;73.80;;;;;;5071524;28;20071;-79
2021/06/17 02:38:14;;;;;;;10.13;6.15;;;21.20;74.00;;;;;;5071687;28;20082;-81
2021/06/17 02:41:02;;;;;;;8.18;6.22;;;21.10;74.10;;;;;;5071986;28;20177;-81
2021/06/17 02:43:51;;;;;;;9.45;6.50;;;21.20;74.40;;;;;;5070490;28;20028;-80
2021/06/17 02:46:36;;;;;;;8.13;6.55;;;21.10;74.40;;;;;;5087293;28;20020;-80
2021/06/17 02:49:21;;;;;;;7.57;6.28;;;21.10;74.70;;;;;;5092359;28;20042;-81
2021/06/17 02:52:05;;;;;;;;;;;21.10;75.10;;;;;;5087750;28;20032;-81
2021/06/17 02:54:49;;;;;;;10.95;7.03;;;21.10;74.10;;;;;;5078024;28;19919;-82
2021/06/17 02:57:57;;;;;;;9.25;6.43;;;21.00;75.10;;;;;;5076257;28;20031;-81
2021/06/17 03:00:50;;;;;;;8.48;6.70;;;21.00;75.40;;;;;;5076068;28;20395;-79
2021/06/17 03:03:51;;;;;;;10.38;7.13;;;21.00;75.90;;;;;;5075275;28;20043;-80
2021/06/17 03:06:40;;;;;;;11.02;6.90;;;21.00;76.10;;;;;;5075306;28;20044;-79
2021/06/17 03:09:34;;;;;;;10.63;7.00;;;21.00;76.50;;;;;;5075191;28;20111;-79
2021/06/17 03:12:22;;;;;;;9.57;7.00;;;21.00;76.70;;;;;;5075266;28;20042;-79
2021/06/17 03:15:07;;;;;;;10.27;8.27;;;21.00;76.90;;;;;;5059166;28;20036;-80
2021/06/17 03:17:53;;;;;;;10.88;6.63;;;20.90;77.50;;;;;;5075221;28;20529;-80
2021/06/17 03:20:40;;;;;;;9.43;7.03;;;20.90;77.60;;;;;;5073946;28;20094;-80
2021/06/17 03:23:27;;;;;;;9.15;7.07;;;21.00;77.60;;;;;;5074907;28;20031;-80
2021/06/17 03:26:13;;;;;;;9.55;7.43;;;21.00;77.70;;;;;;5074962;28;20531;-80
2021/06/17 03:28:58;;;;;;;11.13;7.57;;;21.00;77.80;;;;;;5074916;28;20035;-79
2021/06/17 03:31:43;;;;;;;11.05;7.25;;;21.00;78.00;;;;;;5074807;28;20036;-79
2021/06/17 03:34:28;;;;;;;10.48;8.18;;;21.00;78.10;;;;;;5074058;28;20420;-80
2021/06/17 03:37:16;;;;;;;9.23;7.63;;;21.00;78.20;;;;;;5074668;28;20055;-80
2021/06/17 03:40:01;;;;;;;9.15;7.70;;;21.00;78.60;;;;;;5071429;28;20614;-80
2021/06/17 03:42:47;;;;;;;12.10;7.88;;;21.10;78.70;;;;;;5072879;28;20031;-80
2021/06/17 03:45:32;;;;;;;10.10;7.75;;;21.10;78.90;;;;;;5074328;28;20399;-80
2021/06/17 03:48:17;;;;;;;10.43;8.38;;;21.10;79.20;;;;;;5074425;28;20055;-80
2021/06/17 03:51:02;;;;;;;11.63;8.77;;;21.10;79.30;;;;;;5074319;28;20530;-80
2021/06/17 03:53:47;;;;;;;13.73;7.90;;;21.10;79.50;;;;;;5074291;28;20035;-78
2021/06/17 03:56:31;;;;;;;9.75;7.82;;;21.10;79.70;;;;;;5072421;28;20514;-78
2021/06/17 03:59:16;;;;;;;10.18;8.38;;;21.10;79.80;;;;;;5074087;28;20090;-78
2021/06/17 04:02:00;;;;;;;10.90;8.85;;;21.20;80.20;;;;;;5072070;28;20039;-78
2021/06/17 04:04:45;;;;;;;11.38;8.98;;;21.20;80.30;;;;;;5073488;28;20055;-78
2021/06/17 04:07:30;;;;;;;10.93;8.40;;;21.20;80.30;;;;;;5073081;28;20094;-80
2021/06/17 04:10:17;;;;;;;12.57;8.88;;;21.20;80.40;;;;;;5073537;28;20380;-78
2021/06/17 04:13:02;;;;;;;11.93;8.40;;;21.30;80.70;;;;;;5073324;28;20190;-81
2021/06/17 04:15:48;;;;;;;13.48;8.88;;;21.30;80.70;;;;;;5070169;28;20460;-81
2021/06/17 04:18:34;;;;;;;9.93;8.82;;;21.40;80.80;;;;;;5060434;28;20040;-80
2021/06/17 04:21:20;;;;;;;14.38;9.45;;;21.40;81.00;;;;;;5061969;28;20067;-85
2021/06/17 04:24:06;;;;;;;11.40;8.70;;;21.40;81.00;;;;;;5073290;28;20034;-85
2021/06/17 04:26:52;;;;;;;10.13;8.82;;;21.50;81.00;;;;;;5073401;28;20065;-83
2021/06/17 04:29:39;;;;;;;13.52;9.32;;;21.50;81.20;;;;;;5072836;28;20046;-83
2021/06/17 04:32:24;;;;;;;10.57;9.13;;;21.60;81.20;;;;;;5073120;28;20058;-81
2021/06/17 04:35:11;;;;;;;9.43;8.48;;;21.70;81.20;;;;;;5073501;28;20032;-83
2021/06/17 04:37:56;;;;;;;12.38;9.35;;;21.70;81.30;;;;;;5072863;28;20044;-83
2021/06/17 04:40:41;;;;;;;16.85;9.10;;;21.70;81.30;;;;;;5073482;28;20032;-83
2021/06/17 04:43:26;;;;;;;14.77;9.90;;;21.70;81.50;;;;;;5073356;28;20082;-83
2021/06/17 04:46:11;;;;;;;11.43;9.23;;;21.80;81.60;;;;;;5073548;28;20040;-83
2021/06/17 04:48:56;;;;;;;12.10;8.90;;;21.80;81.50;;;;;;5063640;28;20031;-84
2021/06/17 04:51:42;;;;;;;10.73;8.82;;;21.90;81.50;;;;;;5052874;28;20031;-83
2021/06/17 04:54:26;;;;;;;12.73;10.38;;;21.90;81.60;;;;;;5053192;28;20086;-83
2021/06/17 04:57:10;;;;;;;13.63;9.80;;;22.00;81.70;;;;;;5053410;28;20087;-82
2021/06/17 04:59:54;;;;;;;15.40;10.80;;;22.00;81.80;;;;;;5053202;28;20159;-83
2021/06/17 05:02:38;;;;;;;14.13;10.53;;;22.00;81.80;;;;;;5053101;28;20040;-81
2021/06/17 05:05:22;;;;;;;13.90;9.75;;;22.10;81.90;;;;;;5062585;28;20102;-82
2021/06/17 05:11:02;;;;;;;12.90;9.80;;;22.20;81.80;;;;;;5072797;28;20346;-83
2021/06/17 05:13:46;;;;;;;15.73;10.27;;;22.30;82.00;;;;;;5079990;28;20039;-82
2021/06/17 05:16:30;;;;;;;16.38;11.05;;;22.40;82.10;;;;;;5096438;28;20319;-82
2021/06/17 05:19:15;;;;;;;11.65;10.35;;;22.40;81.90;;;;;;5082372;28;20043;-83
2021/06/17 05:22:00;;;;;;;11.43;10.15;;;22.50;81.80;;;;;;5069286;28;20392;-79
2021/06/17 05:24:44;;;;;;;14.90;10.18;;;22.60;82.00;;;;;;5072438;28;20039;-79
2021/06/17 05:27:30;;;;;;;13.95;9.68;;;22.70;82.00;;;;;;5072093;28;20046;-78
2021/06/17 05:30:14;;;;;;;15.73;9.85;;;22.70;81.60;;;;;;5072392;28;20405;-78
2021/06/17 05:32:59;;;;;;;13.73;10.35;;;22.80;81.70;;;;;;5072366;28;20031;-76
2021/06/17 05:35:44;;;;;;;13.48;10.50;;;23.00;81.70;;;;;;5072455;28;20467;-77
2021/06/17 05:38:30;;;;;;;11.98;9.93;;;23.00;81.20;;;;;;5071778;28;20043;-81
2021/06/17 05:41:15;;;;;;;14.60;10.10;;;23.10;81.30;;;;;;5071760;28;20067;-78
2021/06/17 05:43:59;;;;;;;14.45;10.40;;;23.20;81.20;;;;;;5067385;28;20124;-72
2021/06/17 05:46:43;;;;;;;16.83;11.25;;;23.20;80.90;;;;;;5052065;28;20097;-75
2021/06/17 05:49:28;;;;;;;13.38;10.98;;;23.30;80.60;;;;;;5051484;28;20640;-72
2021/06/17 05:52:12;;;;;;;14.45;10.13;;;23.40;80.70;;;;;;5052049;28;20032;-78
2021/06/17 05:54:56;;;;;;;14.17;10.23;;;23.50;80.50;;;;;;5052133;28;20067;-78
2021/06/17 05:57:40;;;;;;;15.25;9.98;;;23.60;80.50;;;;;;5052374;28;20322;-79
2021/06/17 06:00:24;;;;;;;11.30;9.82;;;23.60;79.80;;;;;;5071411;28;20039;-80
2021/06/17 06:03:09;;;;;;;14.73;9.60;;;23.70;79.60;;;;;;5071665;28;20515;-76
2021/06/17 06:05:53;;;;;;;13.15;10.07;;;23.90;79.40;;;;;;5071269;28;20557;-69
2021/06/17 06:08:37;;;;;;;11.63;9.73;;;23.90;79.20;;;;;;5059246;28;20070;-68
2021/06/17 06:11:21;;;;;;;14.38;10.65;;;24.00;78.80;;;;;;5069314;28;20043;-69
2021/06/17 06:14:05;;;;;;;11.18;10.05;;;24.00;78.60;;;;;;5063154;28;20547;-72
2021/06/17 06:16:50;;;;;;;11.13;9.50;;;24.10;78.90;;;;;;5068180;28;20051;-72
2021/06/17 06:19:35;;;;;;;13.63;10.00;;;24.20;78.50;;;;;;5063219;28;20036;-72
2021/06/17 06:22:20;;;;;;;12.63;10.70;;;24.30;78.30;;;;;;5070393;28;20027;-72
2021/06/17 06:25:05;;;;;;;13.80;10.27;;;24.40;78.20;;;;;;5061490;28;20039;-72
2021/06/17 06:27:49;;;;;;;12.85;10.20;;;24.50;78.10;;;;;;5071207;28;20064;-72
2021/06/17 06:30:33;;;;;;;13.85;10.77;;;24.50;77.70;;;;;;5069583;28;20126;-72
2021/06/17 06:33:19;;;;;;;14.05;10.73;;;24.60;77.50;;;;;;5070323;28;20558;-72
2021/06/17 06:36:04;;;;;;;14.38;9.90;;;24.70;77.20;;;;;;5071330;28;20090;-72
2021/06/17 06:38:48;;;;;;;12.65;10.05;;;24.80;77.40;;;;;;5069687;28;20397;-72
2021/06/17 06:41:32;;;;;;;15.35;10.27;;;24.90;77.20;;;;;;5070788;28;20170;-72
2021/06/17 06:44:16;;;;;;;11.70;9.02;;;25.00;77.00;;;;;;5069329;28;20027;-72
2021/06/17 06:47:00;;;;;;;13.23;9.93;;;25.10;76.50;;;;;;5070275;28;20056;-72
2021/06/17 06:49:43;;;;;;;14.15;9.88;;;25.10;76.10;;;;;;5070363;28;20040;-73
2021/06/17 06:52:28;;;;;;;14.07;9.88;;;25.20;75.30;;;;;;5069856;28;20098;-72
2021/06/17 06:55:13;;;;;;;11.75;9.70;;;25.30;75.70;;;;;;5059086;28;20068;-71
2021/06/17 06:57:57;;;;;;;12.85;9.45;;;25.40;75.10;;;;;;5069937;28;20036;-71
2021/06/17 07:00:45;;;;;;;11.32;9.40;;;25.50;74.90;;;;;;5070159;28;20081;-71
2021/06/17 07:03:29;;;;;;;10.30;9.20;;;25.60;74.90;;;;;;5055098;28;20110;-71
2021/06/17 07:06:13;;;;;;;10.82;9.43;;;25.70;74.00;;;;;;5069216;28;20040;-71
2021/06/17 07:08:57;;;;;;;12.82;9.60;;;25.70;74.40;;;;;;5070218;28;20498;-71
2021/06/17 07:11:41;;;;;;;11.30;10.13;;;25.80;73.60;;;;;;5070571;28;20039;-71
2021/06/17 07:14:25;;;;;;;10.02;8.75;;;26.00;73.10;;;;;;5069817;28;20036;-71
2021/06/17 07:17:09;;;;;;;14.23;9.13;;;26.00;73.10;;;;;;5069342;28;20035;-71
2021/06/17 07:19:55;;;;;;;11.95;9.13;;;26.10;72.40;;;;;;5065756;28;20071;-71
2021/06/17 07:22:39;;;;;;;12.98;9.38;;;26.20;72.50;;;;;;5061202;28;20078;-71
2021/06/17 07:25:25;;;;;;;11.50;8.73;;;26.30;72.30;;;;;;5069715;28;20070;-71
2021/06/17 07:28:09;;;;;;;12.50;9.57;;;26.40;71.90;;;;;;5069879;28;20098;-71
2021/06/17 07:30:53;;;;;;;12.90;9.63;;;26.50;71.50;;;;;;5069279;28;20031;-71
2021/06/17 07:33:37;;;;;;;11.65;8.80;;;26.60;71.10;;;;;;5066438;28;20249;-71
2021/06/17 07:36:21;;;;;;;11.02;8.93;;;26.70;70.70;;;;;;5067728;28;20044;-70
2021/06/17 07:39:08;;;;;;;10.82;8.48;;;26.80;70.10;;;;;;5070547;28;20102;-70
2021/06/17 07:41:52;;;;;;;9.63;8.38;;;26.80;69.80;;;;;;5053329;28;20080;-70
2021/06/17 07:44:36;;;;;;;;;;;27.00;69.70;;;;;;5059719;28;20105;-70
2021/06/17 07:47:20;;;;;;;11.33;8.10;;;27.10;70.10;;;;;;5067735;28;19923;-71
2021/06/17 07:50:07;;;;;;;10.82;7.88;;;27.10;68.50;;;;;;5070380;28;20099;-70
2021/06/17 07:52:51;;;;;;;12.10;8.68;;;27.20;68.70;;;;;;5083344;28;20051;-70
2021/06/17 07:55:35;;;;;;;11.63;8.52;;;27.30;67.70;;;;;;5065145;28;20040;-70
2021/06/17 07:58:20;;;;;;;10.15;8.48;;;27.40;67.40;;;;;;5070727;28;20158;-70
2021/06/17 08:00:52;;;;;;;9.73;8.20;;;27.50;67.30;;;;;;5068522;28;20036;-69
2021/06/17 08:03:17;;;;;;;12.48;7.72;;;27.60;66.10;;;;;;5063781;28;20037;-70
2021/06/17 08:05:43;;;;;;;10.93;7.30;;;27.60;65.90;;;;;;5072116;28;20503;-70
2021/06/17 08:08:08;;;;;;;14.38;8.13;;;27.70;65.10;;;;;;5061698;28;20105;-70
2021/06/17 08:10:34;;;;;;;12.43;8.23;;;27.80;65.00;;;;;;5072410;28;20025;-70
2021/06/17 08:13:00;;;;;;;10.75;7.63;;;27.90;65.00;;;;;;5072865;28;20032;-70
2021/06/17 08:15:25;;;;;;;11.15;7.90;;;28.00;63.90;;;;;;5072087;28;20024;-70
2021/06/17 08:17:53;;;;;;;9.73;7.20;;;28.10;63.00;;;;;;5068282;28;20488;-69
2021/06/17 08:20:19;;;;;;;7.82;6.75;;;28.20;63.00;;;;;;5063022;28;20127;-69
2021/06/17 08:22:44;;;;;;;11.48;7.32;;;28.30;62.80;;;;;;5070696;28;20140;-69
2021/06/17 08:25:11;;;;;;;8.52;6.75;;;28.40;62.20;;;;;;5069366;28;20020;-70
2021/06/17 08:27:37;;;;;;;9.52;6.90;;;28.50;61.00;;;;;;5073364;28;20473;-70
2021/06/17 08:30:08;;;;;;;9.73;6.72;;;28.60;60.90;;;;;;5072421;28;20032;-69
2021/06/17 08:32:33;;;;;;;10.82;6.47;;;28.70;60.60;;;;;;5071841;28;20032;-69
2021/06/17 08:34:59;;;;;;;11.82;7.43;;;28.70;60.00;;;;;;5072399;28;20147;-69
2021/06/17 08:37:25;;;;;;;10.07;6.68;;;28.80;60.10;;;;;;5072754;28;20413;-69
2021/06/17 08:39:55;;;;;;;10.07;6.65;;;28.90;59.30;;;;;;5071185;28;20020;-70
2021/06/17 08:42:29;;;;;;;8.10;6.43;;;29.00;59.10;;;;;;5071976;28;20032;-71
2021/06/17 08:44:56;;;;;;;8.48;6.57;;;29.00;58.20;;;;;;5071332;28;20016;-70
2021/06/17 08:47:21;;;;;;;6.90;6.20;;;29.10;58.10;;;;;;5071838;28;20047;-70
2021/06/17 08:49:51;;;;;;;7.53;6.72;;;29.20;58.20;;;;;;5070806;28;20366;-70
2021/06/17 08:52:18;;;;;;;9.52;6.57;;;29.20;58.00;;;;;;5072766;28;20028;-70
2021/06/17 08:54:44;;;;;;;8.50;6.15;;;29.40;57.60;;;;;;5058492;28;20042;-70
2021/06/17 08:57:28;;;;;;;;;;;29.40;57.80;;;;;;5056903;28;20508;-70
2021/06/17 08:59:53;;;;;;;8.57;6.95;;;29.50;58.50;;;;;;5063723;28;19905;-70
2021/06/17 09:02:19;;;;;;;9.38;6.97;;;29.50;57.20;;;;;;5059252;28;20036;-71
2021/06/17 09:04:44;;;;;;;9.68;7.10;;;29.60;56.50;;;;;;5069016;28;20036;-70
2021/06/17 09:07:12;;;;;;;8.32;7.47;;;29.70;56.40;;;;;;5070636;28;20043;-70
2021/06/17 09:09:56;;;;;;;11.27;6.80;;;29.70;55.50;;;;;;5072190;28;20494;-71
2021/06/17 09:12:48;;;;;;;8.38;6.28;;;29.80;55.60;;;;;;5069751;28;20085;-70
2021/06/17 09:15:38;;;;;;;9.40;6.20;;;29.80;54.90;;;;;;5072084;28;20031;-70
2021/06/17 09:18:30;;;;;;;9.88;6.85;;;29.90;55.20;;;;;;5071174;28;20039;-70
2021/06/17 09:21:14;;;;;;;7.25;6.55;;;30.00;54.80;;;;;;5067792;28;20039;-69
2021/06/17 09:23:58;;;;;;;8.13;6.55;;;30.10;54.60;;;;;;5059454;28;20403;-69
2021/06/17 09:26:24;;;;;;;9.40;6.70;;;30.20;54.10;;;;;;5070793;28;20045;-69
2021/06/17 09:29:07;;;;;;;7.45;5.90;;;30.20;53.40;;;;;;5066718;28;20073;-69
2021/06/17 09:31:37;;;;;;;6.53;5.88;;;30.30;53.40;;;;;;5069223;28;20111;-69
2021/06/17 09:34:08;;;;;;;7.35;6.05;;;30.40;53.50;;;;;;5071632;28;20032;-69
2021/06/17 09:36:35;;;;;;;9.43;6.63;;;30.50;53.00;;;;;;5067033;28;20503;-69
2021/06/17 09:39:02;;;;;;;9.43;6.93;;;30.50;52.70;;;;;;5066870;28;20056;-69
2021/06/17 09:41:37;;;;;;;9.10;6.53;;;30.60;52.70;;;;;;5071009;28;20029;-69
2021/06/17 09:44:37;;;;;;;9.30;6.28;;;30.60;52.10;;;;;;5071374;28;20381;-69
2021/06/17 09:47:22;;;;;;;7.25;6.00;;;30.70;52.20;;;;;;5069364;28;20503;-68
2021/06/17 09:50:23;;;;;;;8.23;5.63;;;30.80;52.10;;;;;;5071343;28;20384;-70
2021/06/17 09:53:26;;;;;;;10.65;6.25;;;30.90;52.20;;;;;;5069889;28;20046;-69
2021/06/17 09:56:13;;;;;;;6.88;5.88;;;31.00;52.00;;;;;;5084039;28;20080;-69
2021/06/17 09:58:57;;;;;;;9.68;5.88;;;31.10;51.20;;;;;;5073340;28;20089;-69
2021/06/17 10:01:37;;;;;;;10.15;6.80;;;31.20;51.70;;;;;;5069909;28;20515;-69
2021/06/17 10:04:07;;;;;;;10.93;5.00;;;31.20;51.30;;;;;;5069846;28;20132;-68
2021/06/17 10:06:39;;;;;;;9.32;5.40;;;31.20;49.90;;;;;;5064198;28;20032;-68
2021/06/17 10:09:17;;;;;;;5.95;5.13;;;31.30;49.20;;;;;;5064023;28;20476;-68
2021/06/17 10:11:43;;;;;;;7.90;5.50;;;31.40;49.60;;;;;;5062806;28;20032;-68
2021/06/17 10:14:10;;;;;;;8.35;5.43;;;31.40;49.60;;;;;;5064781;28;20431;-68
2021/06/17 10:16:54;;;;;;;5.88;4.97;;;31.50;49.10;;;;;;5070403;28;20047;-68
2021/06/17 10:19:40;;;;;;;9.02;5.10;;;31.50;48.70;;;;;;5070799;28;20534;-68
2021/06/17 10:22:26;;;;;;;8.95;5.78;;;31.60;48.70;;;;;;5068921;28;20081;-68
2021/06/17 10:24:52;;;;;;;8.10;5.00;;;31.60;48.40;;;;;;5055787;28;20476;-68
2021/06/17 10:27:35;;;;;;;9.25;5.25;;;31.70;48.20;;;;;;5067116;28;20097;-68
2021/06/17 10:30:03;;;;;;;8.02;5.13;;;31.80;47.60;;;;;;5056338;28;20033;-69
2021/06/17 10:32:37;;;;;;;11.68;5.45;;;31.80;47.40;;;;;;5067208;28;20090;-68
2021/06/17 10:35:03;;;;;;;;;;;31.80;47.20;;;;;;5053517;28;20477;-68
2021/06/17 10:37:31;;;;;;;6.95;4.93;;;31.90;48.00;;;;;;5065857;28;19912;-68
2021/06/17 10:40:08;;;;;;;14.50;5.50;;;31.90;47.30;;;;;;5054399;28;20033;-68
2021/06/17 10:42:40;;;;;;;8.32;5.13;;;31.90;47.00;;;;;;5062457;28;20047;-68
2021/06/17 10:45:06;;;;;;;9.63;5.40;;;31.90;46.70;;;;;;5066638;28;20029;-68
2021/06/17 10:50:42;;;;;;;8.93;5.72;;;32.00;47.00;;;;;;5069407;28;20036;-68
2021/06/17 10:53:19;;;;;;;8.18;5.18;;;32.10;47.20;;;;;;5063054;28;20141;-68
2021/06/17 10:56:09;;;;;;;6.25;4.78;;;32.10;46.10;;;;;;5068618;28;20048;-68
2021/06/17 10:58:55;;;;;;;7.55;5.18;;;32.10;46.10;;;;;;5063673;28;20027;-68
2021/06/17 11:01:42;;;;;;;6.32;4.65;;;32.10;46.00;;;;;;5072375;28;20040;-68
2021/06/17 11:04:36;;;;;;;8.10;5.57;;;32.20;46.00;;;;;;5067508;28;20102;-68
2021/06/17 11:07:21;;;;;;;10.75;4.72;;;32.20;45.50;;;;;;5079762;28;20130;-68
2021/06/17 11:10:07;;;;;;;5.05;4.25;;;32.30;45.50;;;;;;5081311;28;20035;-68
2021/06/17 11:12:58;;;;;;;9.25;5.47;;;32.30;45.20;;;;;;5063856;28;20032;-68
2021/06/17 11:15:44;;;;;;;11.50;4.85;;;32.30;45.30;;;;;;5060269;28;20027;-68
2021/06/17 11:18:41;;;;;;;7.28;4.45;;;32.30;45.80;;;;;;5059159;28;20038;-68
2021/06/17 11:21:27;;;;;;;7.60;4.53;;;32.40;44.80;;;;;;5059628;28;20424;-68
2021/06/17 11:24:10;;;;;;;5.10;4.60;;;32.40;45.00;;;;;;5080882;28;20028;-69
2021/06/17 11:26:54;;;;;;;11.27;5.22;;;32.30;44.50;;;;;;5079234;28;20085;-68
2021/06/17 11:29:42;;;;;;;10.05;5.15;;;32.40;44.70;;;;;;5085032;28;20029;-69
2021/06/17 11:32:37;;;;;;;7.03;4.85;;;32.40;44.60;;;;;;5071384;28;20134;-68
2021/06/17 11:35:03;;;;;;;7.60;4.13;;;32.40;44.90;;;;;;5087343;28;20130;-69
2021/06/17 11:37:31;;;;;;;6.07;5.10;;;32.40;43.90;;;;;;5077395;28;20652;-69
2021/06/17 11:39:57;;;;;;;12.18;5.18;;;32.50;44.10;;;;;;5067498;28;20037;-68
2021/06/17 11:42:22;;;;;;;6.25;5.07;;;32.50;44.60;;;;;;5072220;28;20033;-68
2021/06/17 11:45:10;;;;;;;9.05;4.95;;;32.50;43.70;;;;;;5067315;28;20081;-68
2021/06/17 11:47:48;;;;;;;14.43;5.25;;;32.50;43.90;;;;;;5079805;28;20127;-68
2021/06/17 11:50:15;;;;;;;7.78;4.75;;;32.50;43.60;;;;;;5073027;28;20076;-68
2021/06/17 11:52:40;;;;;;;5.75;4.57;;;32.60;43.30;;;;;;5061983;28;20060;-69
2021/06/17 11:55:08;;;;;;;5.60;4.70;;;32.60;43.00;;;;;;5087186;28;20058;-69
2021/06/17 11:57:39;;;;;;;17.05;5.43;;;32.70;43.80;;;;;;5069599;28;20027;-68
2021/06/17 12:00:25;;;;;;;6.82;5.18;;;32.70;43.30;;;;;;5071585;28;20021;-68
2021/06/17 12:02:51;;;;;;;6.95;4.80;;;32.80;43.60;;;;;;5084729;28;20062;-69
2021/06/17 12:05:22;;;;;;;6.60;4.55;;;32.80;43.40;;;;;;5073426;28;20028;-67
2021/06/17 12:07:48;;;;;;;10.68;5.80;;;32.80;43.40;;;;;;5070199;28;20508;-66
2021/06/17 12:10:35;;;;;;;7.55;4.43;;;32.80;43.60;;;;;;5055721;28;20048;-66
2021/06/17 12:13:19;;;;;;;8.32;5.13;;;32.90;43.30;;;;;;5067158;28;20036;-67
2021/06/17 12:16:05;;;;;;;6.45;5.05;;;32.90;43.40;;;;;;5063726;28;20028;-67
2021/06/17 12:18:51;;;;;;;6.45;5.38;;;33.00;43.30;;;;;;5071155;28;20111;-67
2021/06/17 12:21:38;;;;;;;5.50;4.70;;;33.00;43.40;;;;;;5070138;28;20055;-67
2021/06/17 12:24:24;;;;;;;9.88;4.85;;;33.10;43.00;;;;;;5078940;28;20056;-68
2021/06/17 12:27:10;;;;;;;5.93;4.07;;;33.10;42.50;;;;;;5081666;28;20040;-69
2021/06/17 12:29:56;;;;;;;6.93;4.43;;;33.20;42.50;;;;;;5071923;28;20106;-68
2021/06/17 12:32:42;;;;;;;7.53;4.35;;;33.30;42.50;;;;;;5085651;28;20028;-68
2021/06/17 12:35:35;;;;;;;6.35;4.38;;;33.30;42.40;;;;;;5051410;28;20474;-68
2021/06/17 12:38:28;;;;;;;7.55;4.10;;;33.30;41.70;;;;;;5055373;28;20020;-68
2021/06/17 12:41:19;;;;;;;5.47;4.35;;;33.40;41.60;;;;;;5092603;28;20028;-68
2021/06/17 12:44:05;;;;;;;8.55;4.40;;;33.40;42.10;;;;;;5100159;28;20048;-68
2021/06/17 12:46:55;;;;;;;6.97;4.88;;;33.50;41.60;;;;;;5098600;28;20054;-68
2021/06/17 12:52:59;;;;;;;11.52;4.40;;;33.60;41.80;;;;;;5097282;28;20024;-68
2021/06/17 12:55:51;;;;;;;8.80;5.20;;;33.70;41.30;;;;;;5072608;28;20024;-68
2021/06/17 12:58:48;;;;;;;7.80;4.85;;;33.80;41.40;;;;;;5083592;28;20030;-68
2021/06/17 13:01:48;;;;;;;8.45;5.22;;;33.90;41.30;;;;;;5090973;28;20077;-68
2021/06/17 13:04:34;;;;;;;6.07;4.40;;;34.00;41.30;;;;;;5104077;28;20067;-68
2021/06/17 13:07:20;;;;;;;9.63;4.65;;;34.10;40.80;;;;;;5120498;27;20089;-68
2021/06/17 13:10:16;;;;;;;8.35;4.95;;;34.20;41.10;;;;;;5109134;28;20032;-68
2021/06/17 13:13:25;;;;;;;7.22;4.53;;;34.20;40.70;;;;;;5109949;27;20035;-68
2021/06/17 13:16:18;;;;;;;5.68;4.57;;;34.40;40.30;;;;;;5091912;28;20035;-68
2021/06/17 13:19:11;;;;;;;7.10;4.57;;;34.50;40.50;;;;;;5109244;28;20107;-69
2021/06/17 13:22:01;;;;;;;5.20;4.70;;;34.70;40.40;;;;;;5113024;27;20388;-68
2021/06/17 13:24:48;;;;;;;5.32;4.82;;;34.70;40.20;;;;;;5110099;28;20023;-68
2021/06/17 13:27:35;;;;;;;9.75;4.80;;;34.80;40.40;;;;;;5121705;27;20034;-68
2021/06/17 13:30:27;;;;;;;9.35;4.80;;;34.90;40.30;;;;;;5109752;28;20028;-68
2021/06/17 13:33:12;;;;;;;7.20;4.80;;;34.90;40.30;;;;;;5105711;28;20028;-68
2021/06/17 13:35:59;;;;;;;5.07;4.55;;;35.00;40.10;;;;;;5118301;27;20448;-69
2021/06/17 13:38:45;;;;;;;8.23;5.03;;;35.10;39.80;;;;;;5096028;27;20124;-67
2021/06/17 13:41:34;;;;;;;7.03;4.88;;;35.20;39.40;;;;;;5099418;28;20031;-70
2021/06/17 13:44:22;;;;;;;5.75;4.72;;;35.30;39.40;;;;;;5099824;28;20047;-70
2021/06/17 13:47:09;;;;;;;5.10;4.50;;;35.30;39.70;;;;;;5098990;28;20062;-69
2021/06/17 13:49:55;;;;;;;5.60;4.60;;;35.40;39.20;;;;;;5108337;28;20037;-68
2021/06/17 13:52:40;;;;;;;8.27;4.90;;;35.50;38.80;;;;;;5106068;27;20039;-68
2021/06/17 13:55:27;;;;;;;5.32;4.82;;;35.60;39.40;;;;;;5089388;28;20024;-68
2021/06/17 13:58:13;;;;;;;8.40;4.88;;;35.60;39.40;;;;;;5107712;27;20027;-68
2021/06/17 14:01:01;;;;;;;6.25;4.20;;;35.60;39.00;;;;;;5108588;28;20030;-69
2021/06/17 14:03:48;;;;;;;7.93;5.35;;;35.70;38.90;;;;;;5107557;28;20118;-70
2021/06/17 14:06:34;;;;;;;5.63;4.70;;;35.80;39.30;;;;;;5108672;28;20035;-70
2021/06/17 14:09:20;;;;;;;5.90;4.93;;;35.80;38.20;;;;;;5095702;27;20084;-69
2021/06/17 14:12:06;;;;;;;6.50;4.93;;;35.90;38.50;;;;;;5099042;28;20028;-69
2021/06/17 14:14:53;;;;;;;7.80;5.65;;;35.90;38.60;;;;;;5105329;28;20055;-70